This is the latest recevied weather packets stored in our database for station/object KI5NYZ. If no packets are shown the sender has not sent any weather packets the latest 10 day(s).
| Time | Temp. | Humidity | Pressure | Rain* | Wind** | Luminosity | Snow |
|---|---|---|---|---|---|---|---|
| 1777602321 | 12.22° C | 89% | 1015 hPa | 0 mm | - | 0 W/m² | - |
| 1777600519 | 12.78° C | 89% | 1014.6 hPa | 0 mm | - | 0 W/m² | - |
| 1777599343 | 12.78° C | 88% | 1014.5 hPa | 0 mm | - | 1 W/m² | - |
| 1777596322 | 13.33° C | 85% | 1013.8 hPa | 0 mm | - | 16 W/m² | - |
| 1777594524 | 13.33° C | 85% | 1013.2 hPa | 0 mm | - | 28 W/m² | - |
| 1777583121 | 15° C | 70% | 1014.9 hPa | 0 mm | - | 183 W/m² | - |
| 1777578343 | 15.56° C | 66% | 1015.4 hPa | 0 mm | - | 202 W/m² | - |
| 1777574720 | 14.44° C | 67% | 1015.3 hPa | 0 mm | - | 340 W/m² | - |
| 1777570521 | 13.33° C | 70% | 1015.7 hPa | 0 mm | - | 121 W/m² | - |
| 1777569921 | 13.33° C | 70% | 1015.6 hPa | 0 mm | - | 136 W/m² | - |
| 1777568721 | 12.78° C | 71% | 1015.7 hPa | 0 mm | - | 147 W/m² | - |
| 1777559121 | 11.11° C | 78% | 1015.1 hPa | 0.25 mm | - | 35 W/m² | - |
| 1777556722 | 11.11° C | 77% | 1014.8 hPa | 0.51 mm | - | 38 W/m² | - |
| 1777553719 | 11.11° C | 78% | 1014.6 hPa | 0.25 mm | - | 20 W/m² | - |
| 1777545322 | 11.11° C | 73% | 1014.5 hPa | 0 mm | - | 0 W/m² | - |
| 1777542919 | 11.11° C | 72% | 1014.4 hPa | 0 mm | - | 0 W/m² | - |
| 1777536922 | 10° C | 67% | 1014.8 hPa | 0 mm | - | 0 W/m² | - |
| 1777534542 | 10° C | 68% | 1014.9 hPa | 0 mm | - | 0 W/m² | - |
| 1777532742 | 11.11° C | 65% | 1015.2 hPa | 0 mm | - | 0 W/m² | - |
| 1777530339 | 12.22° C | 62% | 1015.2 hPa | 0 mm | - | 0 W/m² | - |
| 1777529121 | 12.22° C | 62% | 1015.2 hPa | 0 mm | - | 0 W/m² | - |
| 1777523722 | 13.33° C | 57% | 1015.4 hPa | 0 mm | - | 0 W/m² | - |
| 1777520746 | 13.89° C | 55% | 1015.2 hPa | 0 mm | - | 0 W/m² | - |
| 1777516519 | 15° C | 52% | 1014.5 hPa | 0 mm | - | 0 W/m² | - |
| 1777515324 | 15.56° C | 52% | 1014.7 hPa | 0 mm | - | 0 W/m² | - |
* Rain latest hour (hover to see other rain measurements)
** Current wind speed in m/s (hover to see current wind gust speed)